Atlantic, Iowa
Current Conditions -  °F | °C
As of 4:15 AM on Thursday 23 Oct 2014 (Local Time) from KAIO Reporting Station
Overcast Overcast  
Wind Chill: 14°   Ceiling: 800
Heat Index: 14°   Visibility: 10mi
Dew Point: 13°   Wind: 9mph
Humidity: 94%   Direction: 180°S
Pressure: 30.03"   Gusts: NA
Location:  41.4°N, 95.01°W
Report Text: KAIO 230915Z AUTO 18008KT 10SM BKN008 OVC035 14/13 A3003 RMK AO2
Loading
Personal Weather Stations






























Interactive Weather Map
Tropical Storm Tracking
New forecast layout! Learn more

10-Day Weather Forecast

Advertisements
Track Severe Weather on mobile